Time;durP1;ratioP1;P1;durP2;ratioP2;P2;SDS_P1;SDS_P2;PMS_P1;PMS_P2;Temp;Humidity;BMP_temperature;BMP_pressure;BME280_temperature;BME280_humidity;BME280_pressure;Samples;Min_cycle;Max_cycle;Signal;HPM_P1;HPM_P2
2023/03/19 05:04:50;;;;;;;4.07;3.78;;;8.80;99.90;;;;;;5598582;23;20240;-73
2023/03/19 05:07:15;;;;;;;4.37;3.97;;;8.90;99.90;;;;;;4956201;28;20184;-73
2023/03/19 05:09:42;;;;;;;5.40;3.73;;;8.90;99.90;;;;;;4955902;28;20176;-73
2023/03/19 05:12:09;;;;;;;4.97;4.57;;;8.90;99.90;;;;;;4956430;28;20198;-74
2023/03/19 05:14:35;;;;;;;5.70;4.65;;;8.90;99.90;;;;;;4957047;28;20582;-73
2023/03/19 05:17:00;;;;;;;4.67;3.93;;;8.90;99.90;;;;;;4956194;28;20268;-73
2023/03/19 05:19:26;;;;;;;5.53;4.07;;;8.90;99.90;;;;;;4957041;28;20527;-74
2023/03/19 05:21:52;;;;;;;4.72;4.13;;;8.90;99.90;;;;;;4955036;28;20271;-74
2023/03/19 05:24:17;;;;;;;5.17;4.67;;;8.90;99.90;;;;;;4954571;28;20623;-74
2023/03/19 05:26:43;;;;;;;3.83;3.50;;;9.00;99.90;;;;;;4956323;28;20198;-74
2023/03/19 05:29:09;;;;;;;5.03;4.53;;;9.00;99.90;;;;;;4954667;28;20543;-74
2023/03/19 05:31:37;;;;;;;7.90;4.90;;;9.00;99.90;;;;;;4955170;28;20177;-74
2023/03/19 05:34:03;;;;;;;5.68;3.88;;;9.00;99.90;;;;;;4955001;28;20558;-75
2023/03/19 05:36:28;;;;;;;3.83;3.53;;;9.10;99.90;;;;;;4955030;28;20172;-74
2023/03/19 05:38:55;;;;;;;4.83;4.43;;;9.10;99.90;;;;;;4954689;28;20408;-73
2023/03/19 05:41:20;;;;;;;4.13;3.83;;;9.10;99.90;;;;;;4954458;29;20208;-75
2023/03/19 05:43:46;;;;;;;4.10;3.80;;;9.10;99.90;;;;;;4955113;28;20230;-74
2023/03/19 05:46:12;;;;;;;4.40;4.00;;;9.20;99.90;;;;;;4955374;28;20554;-74
2023/03/19 05:48:38;;;;;;;5.63;3.90;;;9.20;99.90;;;;;;4955759;28;20247;-74
2023/03/19 05:51:04;;;;;;;4.33;3.90;;;9.20;99.90;;;;;;4955727;28;20172;-74
2023/03/19 05:53:29;;;;;;;6.10;4.00;;;9.20;99.90;;;;;;4954932;28;20216;-74
2023/03/19 05:55:55;;;;;;;4.03;3.73;;;9.30;99.90;;;;;;4955722;28;20757;-74
2023/03/19 05:58:21;;;;;;;3.50;3.27;;;9.30;99.90;;;;;;4955709;28;20192;-74
2023/03/19 06:00:48;;;;;;;4.13;3.47;;;9.40;99.90;;;;;;4954280;28;20697;-75
2023/03/19 06:03:14;;;;;;;4.05;3.70;;;9.40;99.90;;;;;;4955158;28;20469;-73
2023/03/19 06:05:39;;;;;;;4.57;4.17;;;9.40;99.90;;;;;;4955393;28;20779;-75
2023/03/19 06:08:05;;;;;;;3.30;3.10;;;9.40;99.90;;;;;;4955380;29;20777;-75
2023/03/19 06:10:33;;;;;;;3.97;3.40;;;9.40;99.90;;;;;;4955357;28;20173;-74
2023/03/19 06:12:59;;;;;;;3.83;3.53;;;9.50;99.90;;;;;;4954842;28;20424;-74
2023/03/19 06:15:26;;;;;;;3.80;3.50;;;9.60;99.90;;;;;;4955414;28;20238;-74
2023/03/19 06:17:51;;;;;;;3.15;2.85;;;9.60;99.90;;;;;;4955478;28;20247;-75
2023/03/19 06:20:17;;;;;;;4.13;3.67;;;9.60;99.90;;;;;;4955334;28;20219;-75
2023/03/19 06:22:44;;;;;;;6.82;3.85;;;9.70;99.90;;;;;;4955324;28;20197;-74
2023/03/19 06:25:10;;;;;;;3.70;3.40;;;9.70;99.90;;;;;;4954911;28;20198;-73
2023/03/19 06:27:35;;;;;;;4.17;3.77;;;9.80;99.90;;;;;;4954441;28;20176;-74
2023/03/19 06:30:01;;;;;;;4.70;4.30;;;9.80;99.90;;;;;;4954984;28;20763;-74
2023/03/19 06:32:27;;;;;;;3.43;3.10;;;9.80;99.90;;;;;;4955169;28;20513;-75
2023/03/19 06:34:53;;;;;;;4.10;3.63;;;9.90;99.90;;;;;;4957008;28;20433;-75
2023/03/19 06:37:19;;;;;;;4.18;3.88;;;9.90;99.90;;;;;;4959110;28;20277;-75
2023/03/19 06:39:45;;;;;;;4.33;3.93;;;10.00;99.90;;;;;;4959027;28;20271;-75
2023/03/19 06:42:12;;;;;;;3.40;3.10;;;10.00;99.90;;;;;;4958504;28;20288;-74
2023/03/19 06:44:37;;;;;;;3.22;2.90;;;10.10;99.90;;;;;;4958257;28;20196;-74
2023/03/19 06:47:03;;;;;;;3.57;3.03;;;10.10;99.90;;;;;;4958639;28;20661;-74
2023/03/19 06:49:28;;;;;;;5.20;3.17;;;10.20;99.90;;;;;;4958779;28;20523;-75
2023/03/19 06:51:54;;;;;;;2.67;2.50;;;10.30;99.90;;;;;;4958930;28;20579;-74
2023/03/19 06:54:20;;;;;;;2.20;2.10;;;10.40;99.90;;;;;;4958283;28;20193;-73
2023/03/19 06:56:46;;;;;;;4.30;3.03;;;10.50;99.90;;;;;;4958395;28;20181;-74
2023/03/19 06:59:12;;;;;;;2.80;2.50;;;10.70;99.90;;;;;;4958661;28;20215;-74
2023/03/19 07:01:40;;;;;;;2.50;2.40;;;10.80;99.90;;;;;;4958544;28;20236;-75
2023/03/19 07:04:06;;;;;;;2.60;2.40;;;10.90;99.90;;;;;;4956775;28;20194;-74
2023/03/19 07:06:33;;;;;;;2.17;2.07;;;11.00;99.90;;;;;;4958225;28;20200;-75
2023/03/19 07:08:59;;;;;;;3.30;2.72;;;11.10;99.90;;;;;;4958205;28;20419;-74
2023/03/19 07:11:25;;;;;;;2.40;2.20;;;11.20;99.90;;;;;;4957835;28;20189;-73
2023/03/19 07:13:51;;;;;;;2.10;2.00;;;11.30;99.90;;;;;;4957868;28;20245;-75
2023/03/19 07:16:16;;;;;;;2.70;2.50;;;11.40;99.90;;;;;;4956933;28;20186;-75
2023/03/19 07:18:42;;;;;;;2.60;2.13;;;11.50;99.90;;;;;;4958071;28;20417;-76
2023/03/19 07:21:07;;;;;;;5.57;3.10;;;11.60;99.90;;;;;;4958260;28;20226;-75
2023/03/19 07:23:33;;;;;;;2.50;2.30;;;11.70;99.90;;;;;;4957853;28;20167;-76
2023/03/19 07:25:59;;;;;;;3.40;2.80;;;11.80;99.90;;;;;;4956809;28;20203;-75
2023/03/19 07:28:26;;;;;;;2.53;2.37;;;11.80;99.90;;;;;;4956882;28;20238;-75
2023/03/19 07:30:52;;;;;;;3.77;2.50;;;11.90;99.90;;;;;;4958077;28;20180;-78
2023/03/19 07:33:19;;;;;;;2.63;2.40;;;12.00;99.90;;;;;;4957287;28;20427;-76
2023/03/19 07:35:44;;;;;;;4.00;2.60;;;12.10;99.90;;;;;;4941199;28;20800;-75
2023/03/19 07:38:11;;;;;;;2.90;2.70;;;12.20;99.90;;;;;;4938456;29;20408;-77
2023/03/19 07:40:37;;;;;;;2.97;2.70;;;12.30;99.90;;;;;;4938025;29;20301;-73
2023/03/19 07:43:03;;;;;;;2.30;2.10;;;12.30;99.90;;;;;;4938016;29;20415;-72
2023/03/19 07:45:29;;;;;;;3.90;3.00;;;12.30;99.90;;;;;;4937398;29;20436;-70
2023/03/19 07:47:54;;;;;;;2.40;2.20;;;12.30;99.90;;;;;;4953064;29;20179;-65
2023/03/19 07:50:20;;;;;;;3.10;2.83;;;12.30;99.90;;;;;;4956320;28;20179;-64
2023/03/19 07:52:50;;;;;;;2.50;2.40;;;12.40;99.90;;;;;;4957180;28;20195;-69
2023/03/19 07:55:16;;;;;;;4.13;2.33;;;12.40;99.90;;;;;;4939983;29;20471;-69
2023/03/19 07:57:41;;;;;;;2.80;2.60;;;12.50;99.90;;;;;;4956528;28;20821;-67
2023/03/19 08:00:09;;;;;;;2.70;2.50;;;12.50;99.90;;;;;;4957257;28;20411;-63
2023/03/19 08:02:35;;;;;;;3.03;2.23;;;12.60;99.90;;;;;;4956694;28;20205;-74
2023/03/19 08:05:03;;;;;;;3.77;2.23;;;12.70;99.90;;;;;;4956080;28;20453;-68
2023/03/19 08:07:29;;;;;;;3.10;2.73;;;12.70;99.90;;;;;;4957039;28;20415;-67
2023/03/19 08:09:57;;;;;;;3.03;2.83;;;12.70;99.90;;;;;;4956915;28;20946;-66
2023/03/19 08:12:23;;;;;;;2.50;2.30;;;12.80;99.90;;;;;;4955798;28;20395;-70
2023/03/19 08:14:49;;;;;;;2.50;2.40;;;12.80;99.90;;;;;;4956401;28;20456;-70
2023/03/19 08:17:15;;;;;;;2.37;2.27;;;12.90;99.90;;;;;;4956529;28;20420;-72
2023/03/19 08:19:41;;;;;;;2.73;2.53;;;12.90;99.90;;;;;;4956885;28;20254;-66
2023/03/19 08:22:06;;;;;;;4.90;2.60;;;13.00;99.90;;;;;;4955774;28;20456;-67
2023/03/19 08:24:32;;;;;;;2.47;2.27;;;13.00;99.90;;;;;;4956258;28;20207;-69
2023/03/19 08:26:58;;;;;;;2.80;2.60;;;13.00;99.90;;;;;;4955410;28;20672;-71
2023/03/19 08:29:26;;;;;;;2.70;2.50;;;13.10;99.90;;;;;;4955554;28;20176;-67
2023/03/19 08:31:55;;;;;;;2.67;2.50;;;13.10;99.90;;;;;;4940402;28;20667;-69
2023/03/19 08:34:22;;;;;;;3.00;2.80;;;13.20;99.90;;;;;;4938119;29;20455;-70
2023/03/19 08:36:48;;;;;;;2.40;2.30;;;13.20;99.90;;;;;;4942260;28;20433;-69
2023/03/19 08:39:15;;;;;;;3.03;2.83;;;13.30;99.90;;;;;;4937702;29;20842;-72
2023/03/19 08:41:41;;;;;;;2.90;2.10;;;13.40;99.90;;;;;;4937214;29;20209;-69
2023/03/19 08:44:06;;;;;;;3.03;2.83;;;13.50;99.90;;;;;;4936703;29;20800;-68
2023/03/19 08:46:32;;;;;;;3.80;2.90;;;13.60;99.90;;;;;;4937066;29;20178;-67
2023/03/19 08:48:59;;;;;;;2.87;2.13;;;13.90;99.90;;;;;;4937392;29;20176;-68
2023/03/19 08:51:25;;;;;;;6.70;5.20;;;14.10;99.90;;;;;;4950360;28;20185;-69
2023/03/19 08:53:51;;;;;;;3.63;2.77;;;14.30;99.90;;;;;;4936661;29;20484;-69
2023/03/19 08:56:16;;;;;;;3.03;2.83;;;14.50;99.90;;;;;;4936923;29;20417;-72
2023/03/19 08:58:42;;;;;;;2.30;2.20;;;14.60;99.90;;;;;;4936069;29;20919;-70
2023/03/19 09:01:11;;;;;;;2.70;1.50;;;14.70;99.90;;;;;;4936815;29;20244;-68
2023/03/19 09:03:38;;;;;;;1.60;1.50;;;14.80;99.90;;;;;;4938234;29;20174;-71
2023/03/19 09:06:06;;;;;;;3.43;2.70;;;14.90;99.90;;;;;;4954359;28;20452;-72
2023/03/19 09:08:32;;;;;;;5.53;2.80;;;15.00;99.90;;;;;;4956133;28;20477;-70
2023/03/19 09:10:58;;;;;;;5.57;4.33;;;15.10;99.90;;;;;;4954557;28;20425;-69
2023/03/19 09:13:25;;;;;;;11.43;6.87;;;15.20;99.90;;;;;;4955557;28;20423;-71
2023/03/19 09:15:50;;;;;;;2.87;2.67;;;15.30;99.90;;;;;;4955837;28;20508;-68
2023/03/19 09:18:19;;;;;;;1.87;1.77;;;15.60;99.90;;;;;;4955552;29;20473;-69
2023/03/19 09:20:45;;;;;;;1.63;1.53;;;16.00;99.90;;;;;;4954818;28;20421;-68
2023/03/19 09:23:11;;;;;;;2.50;2.07;;;16.30;99.90;;;;;;4947443;28;20439;-68
2023/03/19 09:25:37;;;;;;;2.03;1.93;;;16.80;99.90;;;;;;4936409;29;20426;-67
2023/03/19 09:28:03;;;;;;;2.20;2.10;;;17.50;99.90;;;;;;4943685;29;20205;-70
2023/03/19 09:30:29;;;;;;;2.13;2.03;;;18.10;99.90;;;;;;4952368;28;20623;-74
2023/03/19 09:32:55;;;;;;;2.50;2.30;;;18.70;99.90;;;;;;4936309;28;20437;-72
2023/03/19 09:35:21;;;;;;;2.30;2.10;;;19.20;99.90;;;;;;4954179;29;20201;-71
2023/03/19 09:37:47;;;;;;;1.53;1.47;;;19.50;98.40;;;;;;4955147;28;20455;-69
2023/03/19 09:40:26;;;;;;;2.27;2.10;;;19.70;98.00;;;;;;4954051;29;20550;-68
2023/03/19 09:43:16;;;;;;;2.20;2.10;;;19.90;97.20;;;;;;4949351;29;20211;-68
2023/03/19 09:45:45;;;;;;;2.20;2.10;;;19.90;97.90;;;;;;4955266;28;20502;-69
2023/03/19 09:48:17;;;;;;;2.27;2.17;;;19.80;97.30;;;;;;4955049;28;20409;-68
2023/03/19 09:50:45;;;;;;;1.43;1.40;;;19.80;97.00;;;;;;4955571;28;20420;-67
2023/03/19 09:53:31;;;;;;;1.30;1.20;;;19.90;94.40;;;;;;4954864;29;20927;-69
2023/03/19 09:55:59;;;;;;;1.70;1.60;;;20.10;90.60;;;;;;4954223;28;20518;-67
2023/03/19 09:58:33;;;;;;;2.33;1.90;;;20.30;90.20;;;;;;4948783;29;20935;-67
2023/03/19 10:01:00;;;;;;;2.30;2.10;;;20.20;91.30;;;;;;4952873;28;20953;-68
2023/03/19 10:03:29;;;;;;;2.77;2.57;;;20.30;94.70;;;;;;4953784;28;20787;-68
2023/03/19 10:06:13;;;;;;;1.77;1.67;;;20.90;96.00;;;;;;4953624;28;20432;-69
2023/03/19 10:08:57;;;;;;;1.30;1.20;;;21.80;92.30;;;;;;4952196;28;20402;-70
2023/03/19 10:11:30;;;;;;;2.00;1.50;;;22.70;91.90;;;;;;4953774;28;20506;-69
2023/03/19 10:14:01;;;;;;;2.40;2.00;;;23.30;89.80;;;;;;4934717;29;20469;-67
2023/03/19 10:16:27;;;;;;;1.70;1.60;;;23.80;90.00;;;;;;4936134;29;20799;-69
2023/03/19 10:18:58;;;;;;;2.60;1.33;;;24.50;76.90;;;;;;4936077;29;20394;-67
2023/03/19 10:21:47;;;;;;;4.07;2.00;;;25.10;82.70;;;;;;4935346;29;20432;-69
2023/03/19 10:24:30;;;;;;;1.60;1.50;;;25.70;81.20;;;;;;4935358;29;20425;-67
2023/03/19 10:27:00;;;;;;;1.80;1.70;;;25.90;79.70;;;;;;4941034;29;20425;-69
2023/03/19 10:29:27;;;;;;;1.60;1.50;;;25.90;78.00;;;;;;4954972;28;20395;-69
2023/03/19 10:32:03;;;;;;;1.87;1.77;;;25.50;75.60;;;;;;4955221;28;20445;-69
2023/03/19 10:34:30;;;;;;;1.57;1.47;;;25.40;75.40;;;;;;4954616;28;20456;-68
2023/03/19 10:37:13;;;;;;;2.90;2.07;;;25.50;72.50;;;;;;4955178;28;20420;-68
2023/03/19 10:39:42;;;;;;;1.77;1.67;;;25.60;74.60;;;;;;4954911;28;20474;-68
2023/03/19 10:42:35;;;;;;;2.80;2.60;;;25.80;68.70;;;;;;4954822;28;20426;-69
2023/03/19 10:45:27;;;;;;;2.87;2.37;;;26.00;70.70;;;;;;4954648;28;20483;-68
2023/03/19 10:47:55;;;;;;;1.67;1.57;;;25.60;70.70;;;;;;4953539;28;20383;-68
2023/03/19 10:50:30;;;;;;;2.03;1.93;;;25.20;76.40;;;;;;4954946;28;20421;-67
2023/03/19 10:53:13;;;;;;;1.90;1.80;;;25.10;77.60;;;;;;4954764;28;20371;-68
2023/03/19 10:55:52;;;;;;;2.00;1.90;;;25.00;78.80;;;;;;4954762;28;20773;-68
2023/03/19 10:58:26;;;;;;;2.07;1.90;;;24.90;74.90;;;;;;4954752;28;20419;-68
2023/03/19 11:01:18;;;;;;;2.10;2.00;;;24.30;76.00;;;;;;4955126;28;20423;-67
2023/03/19 11:03:55;;;;;;;2.30;2.10;;;23.80;79.40;;;;;;4950956;29;20417;-67
2023/03/19 11:06:30;;;;;;;2.20;2.10;;;23.50;77.10;;;;;;4954539;28;20413;-69
2023/03/19 11:08:59;;;;;;;2.20;2.10;;;23.30;78.10;;;;;;4954473;28;20427;-67
2023/03/19 11:11:46;;;;;;;2.53;2.33;;;23.20;76.40;;;;;;4954609;28;20410;-66
2023/03/19 11:14:18;;;;;;;1.83;1.73;;;22.90;78.90;;;;;;4952742;29;20442;-68
2023/03/19 11:16:56;;;;;;;3.30;2.67;;;22.50;78.90;;;;;;4954722;29;20899;-68
2023/03/19 11:19:28;;;;;;;1.73;1.63;;;22.10;80.20;;;;;;4954768;28;20779;-66
2023/03/19 11:22:27;;;;;;;2.00;1.80;;;21.80;80.50;;;;;;4956923;28;20802;-67
2023/03/19 11:25:01;;;;;;;1.90;1.80;;;21.50;81.10;;;;;;4955723;28;20440;-67
2023/03/19 11:27:34;;;;;;;1.70;1.60;;;21.20;84.00;;;;;;4957591;28;20420;-67
2023/03/19 11:30:01;;;;;;;2.17;1.77;;;21.10;81.80;;;;;;4958049;28;20395;-68
2023/03/19 11:32:55;;;;;;;3.07;2.10;;;21.00;81.50;;;;;;4957903;28;20391;-68
2023/03/19 11:35:45;;;;;;;1.83;1.73;;;20.80;80.60;;;;;;4957846;28;20426;-68
2023/03/19 11:38:25;;;;;;;2.50;1.80;;;20.50;81.00;;;;;;4957867;28;20405;-68
2023/03/19 11:41:19;;;;;;;1.73;1.30;;;20.40;83.10;;;;;;4957249;28;20477;-68
2023/03/19 11:43:57;;;;;;;2.03;1.93;;;20.30;83.00;;;;;;4956683;28;20446;-70
2023/03/19 11:46:39;;;;;;;2.40;1.50;;;20.30;81.00;;;;;;4957829;28;20439;-68
2023/03/19 11:49:40;;;;;;;2.30;2.10;;;20.40;83.00;;;;;;4957855;28;20768;-66
2023/03/19 11:52:28;;;;;;;1.73;1.63;;;20.50;82.80;;;;;;4957402;28;20410;-68
2023/03/19 11:55:18;;;;;;;2.03;1.60;;;20.60;82.30;;;;;;4957331;28;20439;-67
2023/03/19 11:57:59;;;;;;;2.53;1.60;;;20.70;81.70;;;;;;4957677;28;20412;-68
2023/03/19 12:00:45;;;;;;;2.13;2.03;;;20.70;80.00;;;;;;4955967;28;20428;-68
2023/03/19 12:03:36;;;;;;;1.67;1.53;;;20.40;81.20;;;;;;4955764;29;20456;-67
2023/03/19 12:06:23;;;;;;;2.90;1.60;;;20.40;84.00;;;;;;4957267;28;20491;-69
2023/03/19 12:08:49;;;;;;;1.63;1.53;;;20.40;81.90;;;;;;4957479;28;20389;-68
2023/03/19 12:11:45;;;;;;;1.97;1.77;;;20.30;80.30;;;;;;4957336;28;20417;-67
2023/03/19 12:14:11;;;;;;;5.90;1.73;;;20.10;80.10;;;;;;4956968;28;20541;-67
2023/03/19 12:17:03;;;;;;;1.77;1.67;;;20.00;81.40;;;;;;4956839;28;20428;-68
2023/03/19 12:19:58;;;;;;;1.57;1.47;;;19.90;81.50;;;;;;4957288;28;20582;-67
2023/03/19 12:22:26;;;;;;;1.30;1.20;;;20.00;80.50;;;;;;4947095;28;20470;-68
2023/03/19 12:25:03;;;;;;;1.50;1.40;;;20.00;80.70;;;;;;4956559;28;20931;-68
2023/03/19 12:27:41;;;;;;;1.20;1.20;;;20.00;79.50;;;;;;4955744;28;20394;-67
2023/03/19 12:30:46;;;;;;;1.70;1.60;;;19.90;80.60;;;;;;4956568;28;20513;-68
2023/03/19 12:33:33;;;;;;;1.17;1.17;;;20.00;82.00;;;;;;4955988;28;20802;-68
2023/03/19 12:36:01;;;;;;;2.07;1.40;;;20.00;81.80;;;;;;4956841;28;20780;-66
2023/03/19 12:38:37;;;;;;;2.00;1.73;;;20.00;80.30;;;;;;4957449;28;20762;-68
2023/03/19 12:41:12;;;;;;;2.40;2.20;;;20.00;82.00;;;;;;4956775;28;20535;-69
2023/03/19 12:44:10;;;;;;;2.10;2.00;;;20.10;80.20;;;;;;4956385;28;20416;-67
2023/03/19 12:46:56;;;;;;;1.70;1.60;;;20.10;79.70;;;;;;4937283;29;20414;-68
2023/03/19 12:49:36;;;;;;;1.77;1.40;;;20.20;81.00;;;;;;4937422;29;20416;-68
2023/03/19 12:52:20;;;;;;;3.17;1.77;;;20.40;81.40;;;;;;4937535;29;20424;-67
2023/03/19 12:54:58;;;;;;;1.63;1.50;;;20.40;78.30;;;;;;4936824;29;20985;-68
2023/03/19 12:57:46;;;;;;;1.57;1.43;;;20.30;77.20;;;;;;4937430;29;20415;-67
2023/03/19 13:00:43;;;;;;;4.73;1.87;;;20.30;78.00;;;;;;4950176;29;20425;-66
2023/03/19 13:03:32;;;;;;;2.00;1.43;;;20.30;77.30;;;;;;4954032;29;20494;-66
2023/03/19 13:06:04;;;;;;;1.90;1.80;;;20.30;78.50;;;;;;4956081;28;20458;-68
2023/03/19 13:08:46;;;;;;;2.30;1.80;;;20.30;77.60;;;;;;4956043;28;20424;-68
2023/03/19 13:11:26;;;;;;;1.97;1.87;;;20.30;78.80;;;;;;4956332;28;20438;-68
2023/03/19 13:14:03;;;;;;;1.70;1.60;;;20.20;79.10;;;;;;4955929;28;20396;-65
2023/03/19 13:16:40;;;;;;;6.30;2.10;;;20.00;80.00;;;;;;4937006;29;20418;-66
2023/03/19 13:19:20;;;;;;;2.50;2.30;;;19.80;84.30;;;;;;4937081;29;20487;-67
2023/03/19 13:21:48;;;;;;;2.00;1.90;;;19.30;85.70;;;;;;4936950;29;20498;-68
2023/03/19 13:24:28;;;;;;;2.23;2.13;;;18.80;88.20;;;;;;4936371;29;20425;-68
2023/03/19 13:26:57;;;;;;;5.47;1.90;;;18.40;89.70;;;;;;4937634;29;20413;-67
2023/03/19 13:29:28;;;;;;;1.73;1.63;;;18.00;90.10;;;;;;4955629;28;20391;-66
2023/03/19 13:32:26;;;;;;;3.83;3.43;;;17.70;90.80;;;;;;4954775;28;20405;-66
2023/03/19 13:35:12;;;;;;;2.60;2.00;;;17.30;91.80;;;;;;4947964;28;20849;-68
2023/03/19 13:37:41;;;;;;;2.30;2.13;;;16.90;93.30;;;;;;4955873;28;20773;-66
2023/03/19 13:40:41;;;;;;;2.33;2.13;;;16.50;95.10;;;;;;4955335;28;20440;-68
2023/03/19 13:43:28;;;;;;;1.97;1.83;;;16.20;97.80;;;;;;4955057;28;20430;-68
2023/03/19 13:46:11;;;;;;;2.93;2.50;;;15.80;99.90;;;;;;4955431;28;20994;-67
2023/03/19 13:48:46;;;;;;;2.07;1.90;;;15.30;99.90;;;;;;4955885;28;20394;-68
2023/03/19 13:51:15;;;;;;;2.40;2.20;;;14.80;99.90;;;;;;4955575;28;20439;-65
2023/03/19 13:54:21;;;;;;;2.30;2.20;;;14.40;99.90;;;;;;4954948;28;20452;-66
2023/03/19 13:57:00;;;;;;;2.03;1.93;;;13.90;99.90;;;;;;4947943;28;20416;-66
2023/03/19 13:59:42;;;;;;;2.50;2.30;;;13.60;99.90;;;;;;4954967;28;20415;-66
2023/03/19 14:02:20;;;;;;;2.77;2.57;;;13.40;99.90;;;;;;4955841;28;20550;-65
2023/03/19 14:05:15;;;;;;;2.30;2.20;;;13.20;99.90;;;;;;4955339;28;20431;-65
2023/03/19 14:07:46;;;;;;;2.30;2.13;;;13.10;99.90;;;;;;4955383;28;20947;-65
2023/03/19 14:10:30;;;;;;;4.00;1.80;;;13.10;99.90;;;;;;4955466;28;20813;-66
2023/03/19 14:13:30;;;;;;;1.70;1.60;;;13.10;99.90;;;;;;4954744;28;20428;-67
2023/03/19 14:16:04;;;;;;;2.30;2.17;;;13.10;99.90;;;;;;4955008;28;20442;-67
2023/03/19 14:18:31;;;;;;;2.53;2.33;;;13.20;99.90;;;;;;4955122;28;20409;-67
2023/03/19 14:21:00;;;;;;;2.53;2.13;;;13.20;99.90;;;;;;4955107;28;20511;-68
2023/03/19 14:23:27;;;;;;;2.43;2.33;;;13.20;99.90;;;;;;4954996;28;20410;-68
2023/03/19 14:26:00;;;;;;;1.93;1.83;;;13.30;99.90;;;;;;4955154;28;20454;-68
2023/03/19 14:28:51;;;;;;;1.93;1.83;;;13.40;99.90;;;;;;4954876;28;20456;-69
2023/03/19 14:31:44;;;;;;;2.30;2.20;;;13.50;99.90;;;;;;4955381;28;20510;-68
2023/03/19 14:34:10;;;;;;;2.10;2.00;;;13.60;99.90;;;;;;4954620;28;20942;-67
2023/03/19 14:36:41;;;;;;;2.93;2.10;;;13.60;99.90;;;;;;4955295;28;20432;-69
2023/03/19 14:39:12;;;;;;;2.10;2.00;;;13.70;99.90;;;;;;4955346;28;20177;-68
2023/03/19 14:41:42;;;;;;;2.30;2.20;;;13.70;99.90;;;;;;4953685;28;20466;-67
2023/03/19 14:44:33;;;;;;;4.50;2.30;;;13.80;99.90;;;;;;4954442;28;20768;-68
2023/03/19 14:47:23;;;;;;;2.60;2.30;;;13.90;99.90;;;;;;4955074;28;20397;-68
2023/03/19 14:50:26;;;;;;;2.30;2.10;;;14.00;99.90;;;;;;4954874;28;20400;-68
2023/03/19 14:53:41;;;;;;;2.10;2.00;;;14.20;99.90;;;;;;4954877;28;20411;-68
2023/03/19 14:56:14;;;;;;;1.73;1.63;;;14.30;99.90;;;;;;4952749;28;20435;-70
2023/03/19 14:58:57;;;;;;;2.00;1.90;;;14.30;99.90;;;;;;4958110;28;20419;-67
2023/03/19 15:01:25;;;;;;;1.80;1.70;;;14.30;99.90;;;;;;4947513;29;20452;-68
2023/03/19 15:03:59;;;;;;;1.63;1.53;;;14.30;99.90;;;;;;4958145;28;20422;-68
2023/03/19 15:06:29;;;;;;;1.83;1.73;;;14.30;99.90;;;;;;4958384;28;20439;-69
2023/03/19 15:08:59;;;;;;;3.13;1.83;;;14.30;99.90;;;;;;4958695;28;20528;-67
2023/03/19 15:11:44;;;;;;;2.03;1.90;;;14.40;99.90;;;;;;4958310;28;20495;-68
2023/03/19 15:14:29;;;;;;;2.70;2.00;;;14.40;99.90;;;;;;4958031;28;20528;-69
2023/03/19 15:17:11;;;;;;;2.43;2.20;;;14.40;99.90;;;;;;4958434;28;20420;-69
2023/03/19 15:19:38;;;;;;;2.77;2.57;;;14.40;99.90;;;;;;4958609;28;20470;-68
2023/03/19 15:22:23;;;;;;;2.90;2.70;;;14.40;99.90;;;;;;4958473;28;20780;-68
2023/03/19 15:24:49;;;;;;;3.63;2.73;;;14.30;99.90;;;;;;4957678;28;20428;-68
2023/03/19 15:27:25;;;;;;;2.37;2.20;;;14.30;99.90;;;;;;4958101;28;20514;-68
2023/03/19 15:29:52;;;;;;;2.53;2.30;;;14.20;99.90;;;;;;4956797;28;20914;-68
2023/03/19 15:32:32;;;;;;;4.73;3.00;;;14.20;99.90;;;;;;4958227;28;20431;-67
2023/03/19 15:34:58;;;;;;;2.50;2.30;;;14.10;99.90;;;;;;4957319;28;20813;-68
2023/03/19 15:37:26;;;;;;;2.63;2.43;;;14.00;99.90;;;;;;4958056;28;20411;-69
2023/03/19 15:39:55;;;;;;;2.50;2.30;;;14.00;99.90;;;;;;4957786;28;20423;-70
2023/03/19 15:42:24;;;;;;;2.43;2.27;;;13.90;99.90;;;;;;4957670;28;20938;-70
2023/03/19 15:44:54;;;;;;;2.90;2.27;;;13.90;99.90;;;;;;4956143;28;20935;-69
2023/03/19 15:47:25;;;;;;;1.80;1.70;;;13.90;99.90;;;;;;4957872;28;20412;-69
2023/03/19 15:49:57;;;;;;;1.90;1.80;;;13.80;99.90;;;;;;4957607;28;20435;-69
2023/03/19 15:52:24;;;;;;;2.07;1.97;;;13.90;99.90;;;;;;4955998;28;20427;-68
2023/03/19 15:54:53;;;;;;;1.80;1.70;;;13.80;99.90;;;;;;4957178;28;20798;-69
2023/03/19 15:57:18;;;;;;;2.70;2.50;;;13.90;99.90;;;;;;4957730;28;20515;-68
2023/03/19 15:59:45;;;;;;;2.23;2.13;;;13.90;99.90;;;;;;4957785;28;20815;-68
2023/03/19 16:02:20;;;;;;;1.97;1.87;;;13.90;99.90;;;;;;4957361;28;20205;-68
2023/03/19 16:04:47;;;;;;;2.30;2.10;;;13.90;99.90;;;;;;4956900;28;20505;-69
2023/03/19 16:07:34;;;;;;;2.77;2.00;;;13.90;99.90;;;;;;4956935;28;20430;-69
2023/03/19 16:10:17;;;;;;;1.83;1.73;;;13.80;99.90;;;;;;4957352;28;20408;-69
2023/03/19 16:12:48;;;;;;;1.93;1.83;;;13.80;99.90;;;;;;4957276;28;20407;-67
2023/03/19 16:15:41;;;;;;;2.43;1.50;;;13.70;99.90;;;;;;4956787;28;20530;-69
2023/03/19 16:18:15;;;;;;;1.73;1.63;;;13.70;99.90;;;;;;4957269;28;20450;-68
2023/03/19 16:20:51;;;;;;;2.10;2.00;;;13.70;99.90;;;;;;4957360;28;20478;-67
2023/03/19 16:23:17;;;;;;;2.70;2.30;;;13.60;99.90;;;;;;4956689;28;20749;-70
2023/03/19 16:25:45;;;;;;;2.00;1.90;;;13.60;99.90;;;;;;4956490;28;20499;-68
2023/03/19 16:28:19;;;;;;;2.63;2.30;;;13.50;99.90;;;;;;4956951;28;20431;-67
2023/03/19 16:30:47;;;;;;;1.60;1.50;;;13.40;99.90;;;;;;4954926;28;20400;-69
2023/03/19 16:33:13;;;;;;;1.50;1.50;;;13.30;99.90;;;;;;4956104;28;20539;-68
2023/03/19 16:35:40;;;;;;;2.20;2.00;;;13.30;99.90;;;;;;4956038;28;20435;-69
2023/03/19 16:38:23;;;;;;;3.13;2.93;;;13.20;99.90;;;;;;4956240;28;20408;-69
2023/03/19 16:41:09;;;;;;;3.97;3.77;;;13.20;99.90;;;;;;4956411;28;20399;-68
2023/03/19 16:43:35;;;;;;;2.80;2.60;;;13.10;99.90;;;;;;4956029;28;20403;-69
2023/03/19 16:46:09;;;;;;;3.83;2.10;;;12.90;99.90;;;;;;4955675;28;20498;-67
2023/03/19 16:48:35;;;;;;;4.67;2.60;;;12.80;99.90;;;;;;4956356;28;20462;-69
2023/03/19 16:51:01;;;;;;;2.93;1.90;;;12.70;99.90;;;;;;4956075;28;20878;-68
2023/03/19 16:53:29;;;;;;;4.17;3.43;;;12.60;99.90;;;;;;4955828;28;20207;-68
2023/03/19 16:55:57;;;;;;;2.67;2.47;;;12.40;99.90;;;;;;4956443;28;20978;-67
2023/03/19 16:58:26;;;;;;;3.50;2.50;;;12.30;99.90;;;;;;4956478;28;20407;-68
2023/03/19 17:00:52;;;;;;;5.70;5.20;;;12.10;99.90;;;;;;4955769;28;20470;-67
2023/03/19 17:03:18;;;;;;;3.57;3.00;;;12.00;99.90;;;;;;4956066;28;20443;-67
2023/03/19 17:05:45;;;;;;;2.43;2.07;;;11.90;99.90;;;;;;4955953;28;20214;-67
2023/03/19 17:08:12;;;;;;;2.80;2.60;;;11.80;99.90;;;;;;4956201;28;20410;-66
2023/03/19 17:10:42;;;;;;;2.10;2.00;;;11.70;99.90;;;;;;4956210;28;20739;-68
2023/03/19 17:13:18;;;;;;;1.47;1.40;;;11.60;99.90;;;;;;4955689;28;20773;-67
2023/03/19 17:15:47;;;;;;;2.28;2.17;;;11.60;99.90;;;;;;4955860;28;20553;-66
2023/03/19 17:18:21;;;;;;;1.60;1.50;;;11.50;99.90;;;;;;4955564;28;20268;-63
2023/03/19 17:21:01;;;;;;;1.65;1.55;;;11.40;99.90;;;;;;4956272;28;20468;-66
2023/03/19 17:23:29;;;;;;;1.92;1.83;;;11.40;99.90;;;;;;4954483;29;20279;-65
2023/03/19 17:25:55;;;;;;;1.33;1.30;;;11.30;99.90;;;;;;4955802;28;20203;-65
2023/03/19 17:28:22;;;;;;;1.48;1.38;;;11.20;99.90;;;;;;4955782;28;20177;-65
2023/03/19 17:30:49;;;;;;;2.72;2.50;;;11.10;99.90;;;;;;4956036;28;20221;-64
2023/03/19 17:33:24;;;;;;;2.35;2.15;;;11.00;99.90;;;;;;4955030;28;20200;-66
2023/03/19 17:35:51;;;;;;;1.75;1.65;;;10.90;99.90;;;;;;4955905;28;20200;-64
2023/03/19 17:38:18;;;;;;;2.90;2.42;;;10.90;99.90;;;;;;4955412;28;20177;-65
2023/03/19 17:40:43;;;;;;;2.08;1.92;;;10.90;99.90;;;;;;4955865;28;20513;-64
2023/03/19 17:43:11;;;;;;;2.27;2.07;;;10.90;99.90;;;;;;4955175;29;20209;-68
2023/03/19 17:45:39;;;;;;;2.47;1.75;;;10.90;99.90;;;;;;4955284;28;20196;-65
2023/03/19 17:48:04;;;;;;;2.40;2.20;;;10.80;99.90;;;;;;4955540;28;20189;-64
2023/03/19 17:50:31;;;;;;;2.97;2.60;;;10.80;99.90;;;;;;4955447;28;20669;-66
2023/03/19 17:52:58;;;;;;;3.10;2.85;;;10.70;99.90;;;;;;4955492;28;20332;-64
2023/03/19 17:55:28;;;;;;;2.35;2.15;;;10.70;99.90;;;;;;4955627;28;20205;-65
2023/03/19 17:57:54;;;;;;;2.10;2.00;;;10.70;99.90;;;;;;4955487;28;20260;-64
2023/03/19 18:00:22;;;;;;;2.50;2.30;;;10.70;99.90;;;;;;4954982;28;20731;-65
2023/03/19 18:02:50;;;;;;;2.35;2.17;;;10.70;99.90;;;;;;4955339;28;20289;-65
2023/03/19 18:05:22;;;;;;;2.60;2.40;;;10.70;99.90;;;;;;4951423;28;20193;-66
2023/03/19 18:07:50;;;;;;;4.57;2.88;;;10.70;99.90;;;;;;4955402;28;20180;-64
2023/03/19 18:10:26;;;;;;;2.28;2.15;;;10.70;99.90;;;;;;4955150;28;20177;-65
2023/03/19 18:12:53;;;;;;;2.30;2.15;;;10.60;99.90;;;;;;4948885;28;20201;-67
2023/03/19 18:15:19;;;;;;;2.03;1.88;;;10.60;99.90;;;;;;4952670;28;20283;-66
2023/03/19 18:17:48;;;;;;;2.40;2.20;;;10.60;99.90;;;;;;4953431;28;20219;-64
2023/03/19 18:20:17;;;;;;;2.38;2.17;;;10.60;99.90;;;;;;4949882;28;20190;-66